createdAt,value
2022-11-07T00:00:47.491Z,25.65
2022-11-07T00:03:16.717Z,25.02
2022-11-07T00:05:43.370Z,24.48
2022-11-07T00:08:09.752Z,24.70
2022-11-07T00:10:36.028Z,25.33
2022-11-07T00:13:02.583Z,23.95
2022-11-07T00:15:28.868Z,25.23
2022-11-07T00:17:55.087Z,26.42
2022-11-07T00:20:21.493Z,24.98
2022-11-07T00:22:47.940Z,24.20
2022-11-07T00:25:14.208Z,24.30
2022-11-07T00:27:40.575Z,23.48
2022-11-07T00:30:06.943Z,24.70
2022-11-07T00:32:36.052Z,24.30
2022-11-07T00:35:02.304Z,22.17
2022-11-07T00:37:28.653Z,24.65
2022-11-07T00:39:55.067Z,23.38
2022-11-07T00:42:21.352Z,23.33
2022-11-07T00:44:47.610Z,23.98
2022-11-07T00:47:13.827Z,23.55
2022-11-07T00:49:40.235Z,22.30
2022-11-07T00:52:06.463Z,20.73
2022-11-07T00:54:32.781Z,23.80
2022-11-07T00:56:59.101Z,22.27
2022-11-07T00:59:25.392Z,22.88
2022-11-07T01:01:51.930Z,21.38
2022-11-07T01:04:18.375Z,21.27
2022-11-07T01:06:45.175Z,22.75
2022-11-07T01:09:11.455Z,20.50
2022-11-07T01:11:38.240Z,22.80
2022-11-07T01:14:04.565Z,20.63
2022-11-07T01:16:31.028Z,21.20
2022-11-07T01:18:57.262Z,20.10
2022-11-07T01:21:23.510Z,20.20
2022-11-07T01:23:49.791Z,20.02
2022-11-07T01:26:16.011Z,20.90
2022-11-07T01:28:42.317Z,23.55
2022-11-07T01:31:08.677Z,21.33
2022-11-07T01:33:34.987Z,19.92
2022-11-07T01:36:05.897Z,21.63
2022-11-07T01:38:32.587Z,22.25
2022-11-07T01:40:58.987Z,18.73
2022-11-07T01:43:25.263Z,19.80
2022-11-07T01:45:51.516Z,20.50
2022-11-07T01:48:17.876Z,19.15
2022-11-07T01:50:44.264Z,19.90
2022-11-07T01:53:10.627Z,20.20
2022-11-07T01:55:36.916Z,19.30
2022-11-07T01:58:03.204Z,19.83
2022-11-07T02:00:29.452Z,18.27
2022-11-07T02:02:55.885Z,18.80
2022-11-07T02:05:22.296Z,19.42
2022-11-07T02:07:48.648Z,19.15
2022-11-07T02:10:15.276Z,17.98
2022-11-07T02:12:41.631Z,18.48
2022-11-07T02:15:07.899Z,17.67
2022-11-07T02:17:36.932Z,20.00
2022-11-07T02:20:03.239Z,19.65
2022-11-07T02:22:29.566Z,18.50
2022-11-07T02:24:55.817Z,19.42
2022-11-07T02:27:22.095Z,17.70
2022-11-07T02:29:48.415Z,19.35
2022-11-07T02:32:14.818Z,17.67
2022-11-07T02:34:41.095Z,16.80
2022-11-07T02:37:07.368Z,17.63
2022-11-07T02:39:33.810Z,19.02
2022-11-07T02:42:00.121Z,17.63
2022-11-07T02:44:26.407Z,16.38
2022-11-07T02:46:52.636Z,16.98
2022-11-07T02:49:19.078Z,18.23
2022-11-07T02:51:45.615Z,16.60
2022-11-07T02:54:12.001Z,17.48
2022-11-07T02:56:38.290Z,16.65
2022-11-07T02:59:04.582Z,16.45
2022-11-07T03:01:30.878Z,17.35
2022-11-07T03:03:57.244Z,17.00
2022-11-07T03:06:23.582Z,17.67
2022-11-07T03:08:49.827Z,17.83
2022-11-07T03:11:16.111Z,16.55
2022-11-07T03:13:42.473Z,16.25
2022-11-07T03:16:08.935Z,16.20
2022-11-07T03:18:35.170Z,18.83
2022-11-07T03:21:01.527Z,16.27
2022-11-07T03:23:27.768Z,16.85
2022-11-07T03:25:54.099Z,16.60
2022-11-07T03:28:20.387Z,16.10
2022-11-07T03:30:46.769Z,15.90
2022-11-07T03:33:13.437Z,15.88
2022-11-07T03:35:39.920Z,15.63
2022-11-07T03:38:06.490Z,16.10
2022-11-07T03:40:33.078Z,16.42
2022-11-07T03:42:59.344Z,16.15
2022-11-07T03:45:25.648Z,16.35
2022-11-07T03:47:52.124Z,14.73
2022-11-07T03:50:18.452Z,14.80
2022-11-07T03:52:44.712Z,15.50
2022-11-07T03:55:11.075Z,15.25
2022-11-07T03:57:37.377Z,15.05
2022-11-07T04:00:03.657Z,15.82
2022-11-07T04:02:30.129Z,14.90
2022-11-07T04:04:56.528Z,15.07
2022-11-07T04:07:22.880Z,15.20
2022-11-07T04:09:49.251Z,14.68
2022-11-07T04:12:15.531Z,14.27
2022-11-07T04:14:41.884Z,14.65
2022-11-07T04:17:08.336Z,14.02
2022-11-07T04:19:34.792Z,14.73
2022-11-07T04:22:01.084Z,15.02
2022-11-07T04:24:27.319Z,14.73
2022-11-07T04:26:53.557Z,14.57
2022-11-07T04:29:19.831Z,14.32
2022-11-07T04:31:46.064Z,13.70
2022-11-07T04:34:12.356Z,15.52
2022-11-07T04:36:38.738Z,15.77
2022-11-07T04:39:05.188Z,14.07
2022-11-07T04:41:31.658Z,14.27
2022-11-07T04:43:57.952Z,14.10
2022-11-07T04:46:24.350Z,15.60
2022-11-07T04:48:50.628Z,14.68
2022-11-07T04:51:16.914Z,13.77
2022-11-07T04:53:43.222Z,14.13
2022-11-07T04:56:09.462Z,12.82
2022-11-07T04:58:35.808Z,13.98
2022-11-07T05:01:02.063Z,13.98
2022-11-07T05:03:28.480Z,13.48
2022-11-07T05:05:54.825Z,13.43
2022-11-07T05:08:21.135Z,14.73
2022-11-07T05:10:47.540Z,14.38
2022-11-07T05:13:14.070Z,13.45
2022-11-07T05:15:40.572Z,12.95
2022-11-07T05:18:07.021Z,13.30
2022-11-07T05:20:33.248Z,14.32
2022-11-07T05:22:59.592Z,13.80
2022-11-07T05:25:25.859Z,13.60
2022-11-07T05:27:52.196Z,13.00
2022-11-07T05:30:18.558Z,12.40
2022-11-07T05:32:44.841Z,14.68
2022-11-07T05:35:11.165Z,13.50
2022-11-07T05:37:37.726Z,13.35
2022-11-07T05:40:04.023Z,13.35
2022-11-07T05:42:30.300Z,12.77
2022-11-07T05:44:56.544Z,12.32
2022-11-07T05:47:22.827Z,11.70
2022-11-07T05:49:49.094Z,13.32
2022-11-07T05:52:15.394Z,13.00
2022-11-07T05:54:41.689Z,12.07
2022-11-07T05:57:07.983Z,13.23
2022-11-07T05:59:34.247Z,11.65
2022-11-07T06:02:00.584Z,11.93
2022-11-07T06:04:27.043Z,12.68
2022-11-07T06:06:53.359Z,12.15
2022-11-07T06:09:19.599Z,13.00
2022-11-07T06:11:45.920Z,11.73
2022-11-07T06:14:12.391Z,11.98
2022-11-07T06:16:38.689Z,13.32
2022-11-07T06:19:05.055Z,11.90
2022-11-07T06:21:31.331Z,12.45
2022-11-07T06:23:57.688Z,12.30
2022-11-07T06:26:24.016Z,13.27
2022-11-07T06:28:50.345Z,10.77
2022-11-07T06:31:16.606Z,12.65
2022-11-07T06:33:42.941Z,11.80
2022-11-07T06:36:09.241Z,11.60
2022-11-07T06:38:35.512Z,11.55
2022-11-07T06:41:01.781Z,11.88
2022-11-07T06:43:32.749Z,10.27
2022-11-07T06:45:59.996Z,10.90
2022-11-07T06:48:26.411Z,11.50
2022-11-07T06:50:52.927Z,11.60
2022-11-07T06:53:19.663Z,10.93
2022-11-07T06:55:46.354Z,10.98
2022-11-07T06:58:12.664Z,9.75
2022-11-07T07:00:39.148Z,11.38
2022-11-07T07:03:05.611Z,11.05
2022-11-07T07:05:32.028Z,10.10
2022-11-07T07:07:58.369Z,10.75
2022-11-07T07:10:24.814Z,10.50
2022-11-07T07:12:51.291Z,10.43
2022-11-07T07:15:17.588Z,10.10
2022-11-07T07:17:43.976Z,10.00
2022-11-07T07:20:10.246Z,10.52
2022-11-07T07:22:36.498Z,10.55
2022-11-07T07:25:02.869Z,10.38
2022-11-07T07:27:29.213Z,10.27
2022-11-07T07:29:55.516Z,10.18
2022-11-07T07:32:21.769Z,11.02
2022-11-07T07:34:48.070Z,10.07
2022-11-07T07:37:14.359Z,9.70
2022-11-07T07:39:40.580Z,9.55
2022-11-07T07:42:06.824Z,10.73
2022-11-07T07:44:33.272Z,9.75
2022-11-07T07:46:59.535Z,9.38
2022-11-07T07:49:25.888Z,10.48
2022-11-07T07:51:52.272Z,9.00
2022-11-07T07:54:18.569Z,10.18
2022-11-07T07:56:45.018Z,9.55
2022-11-07T07:59:11.394Z,10.27
2022-11-07T08:01:37.953Z,9.27
2022-11-07T08:04:04.291Z,9.73
2022-11-07T08:06:30.779Z,9.35
2022-11-07T08:08:57.075Z,9.63
2022-11-07T08:11:23.453Z,8.50
2022-11-07T08:13:49.799Z,9.27
2022-11-07T08:16:16.175Z,10.48
2022-11-07T08:18:42.510Z,9.65
2022-11-07T08:21:08.842Z,9.98
2022-11-07T08:23:35.148Z,9.45
2022-11-07T08:26:01.491Z,9.27
2022-11-07T08:28:29.477Z,8.68
2022-11-07T08:30:55.849Z,8.07
2022-11-07T08:33:22.195Z,9.07
2022-11-07T08:35:48.540Z,9.15
2022-11-07T08:38:15.008Z,8.82
2022-11-07T08:40:41.493Z,8.88
2022-11-07T08:43:07.959Z,8.80
2022-11-07T08:45:34.402Z,9.48
2022-11-07T08:48:00.625Z,8.57
2022-11-07T08:50:26.888Z,8.65
2022-11-07T08:52:55.836Z,10.00
2022-11-07T08:55:24.555Z,8.02
2022-11-07T08:57:50.778Z,8.55
2022-11-07T09:00:17.200Z,8.52
2022-11-07T09:05:30.204Z,8.10
2022-11-07T09:07:56.432Z,8.30
2022-11-07T09:10:22.754Z,8.50
2022-11-07T09:12:49.057Z,8.45
2022-11-07T09:15:15.340Z,8.38
2022-11-07T09:17:41.551Z,8.52
2022-11-07T09:20:07.811Z,8.10
2022-11-07T09:22:34.165Z,7.32
2022-11-07T09:25:00.508Z,8.48
2022-11-07T09:27:26.787Z,8.30
2022-11-07T09:29:53.064Z,7.68
2022-11-07T09:32:43.469Z,7.80
2022-11-07T09:35:05.860Z,9.00
2022-11-07T09:37:32.136Z,7.63
2022-11-07T09:39:58.547Z,7.95
2022-11-07T09:42:24.836Z,8.35
2022-11-07T09:44:51.135Z,7.85
2022-11-07T09:47:17.641Z,7.85
2022-11-07T09:49:43.969Z,7.63
2022-11-07T09:52:10.257Z,7.25
2022-11-07T09:54:36.476Z,6.95
2022-11-07T09:57:02.867Z,7.25
2022-11-07T09:59:29.249Z,8.43
2022-11-07T10:01:55.667Z,8.18
2022-11-07T10:04:25.288Z,7.78
2022-11-07T10:06:52.623Z,6.95
2022-11-07T10:09:18.920Z,7.05
2022-11-07T10:11:45.179Z,7.03
2022-11-07T10:14:11.602Z,8.15
2022-11-07T10:16:37.939Z,7.10
2022-11-07T10:19:04.337Z,7.10
2022-11-07T10:21:37.538Z,7.20
2022-11-07T10:24:04.675Z,7.95
2022-11-07T10:26:30.977Z,7.38
2022-11-07T10:28:57.408Z,7.28
2022-11-07T10:31:23.882Z,7.25
2022-11-07T10:33:50.118Z,6.75
2022-11-07T10:36:16.502Z,7.72
2022-11-07T10:38:42.920Z,7.00
2022-11-07T10:41:09.246Z,6.40
2022-11-07T10:43:35.547Z,7.10
2022-11-07T10:46:01.819Z,8.07
2022-11-07T10:48:28.184Z,8.43
2022-11-07T10:50:54.448Z,7.90
2022-11-07T10:53:20.764Z,8.05
2022-11-07T10:55:47.137Z,7.30
2022-11-07T10:58:13.807Z,6.13
2022-11-07T11:00:40.417Z,6.75
2022-11-07T11:03:06.765Z,5.60
2022-11-07T11:05:33.045Z,7.00
2022-11-07T11:07:59.529Z,6.72
2022-11-07T11:10:25.815Z,8.10
2022-11-07T11:12:52.327Z,6.20
2022-11-07T11:15:18.616Z,6.80
2022-11-07T11:17:44.886Z,6.75
2022-11-07T11:20:11.260Z,6.05
2022-11-07T11:22:37.755Z,6.15
2022-11-07T11:25:04.055Z,6.10
2022-11-07T11:27:30.320Z,6.30
2022-11-07T11:29:56.587Z,6.55
2022-11-07T11:32:23.057Z,6.68
2022-11-07T11:34:49.315Z,6.60
2022-11-07T11:37:15.571Z,6.63
2022-11-07T11:39:41.892Z,6.40
2022-11-07T11:42:08.244Z,6.47
2022-11-07T11:44:34.560Z,7.00
2022-11-07T11:47:00.847Z,5.55
2022-11-07T11:49:27.294Z,6.10
2022-11-07T11:51:53.615Z,5.90
2022-11-07T11:54:19.899Z,5.50
2022-11-07T11:56:47.183Z,6.47
2022-11-07T11:59:13.434Z,6.55
2022-11-07T12:01:39.871Z,5.75
2022-11-07T12:04:08.071Z,5.72
2022-11-07T12:06:34.855Z,6.00
2022-11-07T12:09:01.167Z,5.65
2022-11-07T12:11:27.503Z,5.38
2022-11-07T12:13:53.752Z,5.90
2022-11-07T12:16:20.000Z,7.00
2022-11-07T12:18:46.301Z,5.70
2022-11-07T12:21:12.564Z,6.45
2022-11-07T12:23:38.890Z,5.47
2022-11-07T12:26:05.127Z,6.80
2022-11-07T12:28:31.394Z,5.63
2022-11-07T12:30:57.798Z,6.72
2022-11-07T12:33:24.168Z,5.75
2022-11-07T12:35:50.473Z,6.20
2022-11-07T12:38:16.961Z,6.05
2022-11-07T12:40:43.331Z,5.38
2022-11-07T12:43:09.554Z,5.88
2022-11-07T12:45:35.871Z,5.60
2022-11-07T12:48:02.358Z,5.80
2022-11-07T12:50:28.766Z,5.10
2022-11-07T12:52:55.074Z,5.90
2022-11-07T12:55:21.485Z,5.50
2022-11-07T12:57:47.781Z,5.97
2022-11-07T13:00:14.208Z,5.28
2022-11-07T13:02:40.543Z,5.20
2022-11-07T13:05:06.842Z,5.30
2022-11-07T13:07:33.186Z,5.53
2022-11-07T13:09:59.481Z,5.30
2022-11-07T13:12:25.985Z,5.32
2022-11-07T13:14:52.253Z,6.03
2022-11-07T13:17:18.503Z,5.68
2022-11-07T13:19:44.938Z,5.22
2022-11-07T13:22:11.329Z,5.10
2022-11-07T13:24:37.826Z,5.05
2022-11-07T13:27:04.107Z,6.20
2022-11-07T13:29:30.545Z,4.68
2022-11-07T13:31:57.105Z,5.60
2022-11-07T13:34:23.415Z,4.72
2022-11-07T13:36:49.786Z,6.05
2022-11-07T13:39:16.194Z,5.47
2022-11-07T13:41:42.558Z,5.13
2022-11-07T13:44:09.099Z,5.72
2022-11-07T13:46:35.361Z,5.03
2022-11-07T13:49:01.768Z,6.22
2022-11-07T13:51:28.071Z,5.18
2022-11-07T13:53:54.481Z,4.97
2022-11-07T13:56:20.802Z,5.05
2022-11-07T13:58:47.191Z,5.05
2022-11-07T14:01:13.588Z,5.30
2022-11-07T14:03:39.872Z,5.40
2022-11-07T14:06:06.512Z,4.75
2022-11-07T14:08:32.799Z,5.10
2022-11-07T14:10:59.351Z,4.95
2022-11-07T14:15:54.783Z,5.18
2022-11-07T14:18:21.204Z,5.55
2022-11-07T14:20:47.953Z,5.50
2022-11-07T14:23:14.296Z,5.35
2022-11-07T14:25:40.656Z,5.82
2022-11-07T14:28:06.987Z,6.82
2022-11-07T14:30:33.296Z,4.90
2022-11-07T14:32:59.557Z,4.95
2022-11-07T14:35:25.918Z,5.95
2022-11-07T14:37:52.158Z,5.07
2022-11-07T14:40:18.527Z,4.80
2022-11-07T14:42:44.825Z,5.07
2022-11-07T14:45:11.091Z,4.85
2022-11-07T14:47:37.407Z,5.03
2022-11-07T14:50:03.939Z,4.70
2022-11-07T14:52:30.294Z,5.55
2022-11-07T14:54:56.539Z,5.32
2022-11-07T14:57:22.821Z,4.60
2022-11-07T14:59:49.223Z,4.25
2022-11-07T15:02:15.676Z,3.90
2022-11-07T15:04:42.254Z,4.15
2022-11-07T15:07:08.652Z,5.40
2022-11-07T15:09:34.977Z,5.45
2022-11-07T15:12:01.335Z,5.25
2022-11-07T15:14:27.673Z,4.65
2022-11-07T15:16:53.964Z,5.40
2022-11-07T15:19:20.216Z,5.47
2022-11-07T15:21:46.443Z,5.07
2022-11-07T15:24:15.902Z,5.30
2022-11-07T15:26:42.321Z,4.30
2022-11-07T15:29:08.825Z,4.35
2022-11-07T15:31:35.112Z,4.57
2022-11-07T15:34:01.484Z,5.18
2022-11-07T15:36:27.957Z,4.30
2022-11-07T15:38:54.253Z,5.45
2022-11-07T15:41:20.512Z,4.63
2022-11-07T15:43:46.755Z,4.05
2022-11-07T15:46:13.101Z,4.30
2022-11-07T15:48:41.392Z,4.30
2022-11-07T15:51:07.827Z,4.82
2022-11-07T15:53:34.160Z,4.22
2022-11-07T15:56:00.507Z,4.45
2022-11-07T15:58:26.806Z,4.60
2022-11-07T16:00:53.116Z,4.18
2022-11-07T16:03:19.383Z,5.82
2022-11-07T16:05:46.046Z,4.82
2022-11-07T16:08:12.397Z,4.20
2022-11-07T16:10:38.769Z,4.75
2022-11-07T16:13:05.360Z,4.93
2022-11-07T16:15:31.658Z,4.43
2022-11-07T16:17:57.968Z,3.67
2022-11-07T16:20:24.290Z,3.72
2022-11-07T16:22:50.595Z,4.53
2022-11-07T16:25:21.335Z,4.97
2022-11-07T16:27:48.552Z,4.00
2022-11-07T16:30:14.838Z,4.72
2022-11-07T16:32:41.138Z,5.10
2022-11-07T16:35:07.440Z,3.90
2022-11-07T16:37:33.806Z,4.53
2022-11-07T16:40:00.088Z,3.92
2022-11-07T16:42:26.561Z,3.78
2022-11-07T16:44:52.939Z,4.00
2022-11-07T16:47:19.312Z,5.82
2022-11-07T16:49:45.628Z,3.45
2022-11-07T16:52:12.311Z,4.47
2022-11-07T16:54:38.609Z,4.13
2022-11-07T16:57:04.903Z,4.53
2022-11-07T16:59:31.157Z,3.78
2022-11-07T17:01:57.751Z,5.47
2022-11-07T17:04:24.124Z,3.97
2022-11-07T17:06:50.416Z,4.07
2022-11-07T17:09:16.992Z,4.55
2022-11-07T17:11:43.245Z,72.47
2022-11-07T17:14:09.932Z,288.30
2022-11-07T17:16:36.383Z,221.30
2022-11-07T17:19:02.633Z,195.52
2022-11-07T17:21:28.940Z,218.15
2022-11-07T17:23:55.189Z,329.90
2022-11-07T17:26:21.831Z,403.55
2022-11-07T17:28:48.264Z,334.02
2022-11-07T17:31:14.729Z,304.67
2022-11-07T17:33:41.085Z,285.08
2022-11-07T17:41:18.461Z,239.57
2022-11-07T17:43:44.793Z,227.88
2022-11-07T17:46:11.263Z,217.18
2022-11-07T17:48:37.481Z,262.30
2022-11-07T17:51:03.955Z,367.00
2022-11-07T17:53:30.208Z,364.33
2022-11-07T17:55:56.463Z,335.20
2022-11-07T17:58:22.785Z,304.42
2022-11-07T18:00:49.158Z,275.25
2022-11-07T18:05:50.639Z,233.05
2022-11-07T18:08:25.267Z,220.55
2022-11-07T18:11:03.127Z,212.15
2022-11-07T18:13:29.596Z,204.50
2022-11-07T18:15:55.917Z,185.20
2022-11-07T18:20:55.398Z,169.70
2022-11-07T18:23:21.648Z,187.95
2022-11-07T18:25:47.908Z,308.55
2022-11-07T18:28:14.432Z,410.77
2022-11-07T18:30:40.979Z,361.20
2022-11-07T18:33:07.246Z,338.42
2022-11-07T18:35:33.557Z,320.13
2022-11-07T18:38:00.232Z,311.58
2022-11-07T18:40:26.649Z,296.23
2022-11-07T18:42:53.108Z,273.48
2022-11-07T18:45:19.676Z,266.10
2022-11-07T18:47:45.987Z,257.10
2022-11-07T18:50:12.356Z,240.25
2022-11-07T18:52:38.643Z,238.73
2022-11-07T18:55:05.008Z,229.45
2022-11-07T18:57:31.388Z,325.45
2022-11-07T18:59:57.673Z,381.55
2022-11-07T19:02:24.046Z,376.63
2022-11-07T19:04:50.568Z,352.58
2022-11-07T19:07:16.921Z,347.10
2022-11-07T19:09:43.303Z,317.98
2022-11-07T19:12:09.644Z,299.08
2022-11-07T19:17:17.512Z,258.52
2022-11-07T19:19:44.167Z,251.00
2022-11-07T19:22:10.521Z,240.73
2022-11-07T19:24:36.972Z,228.07
2022-11-07T19:27:03.309Z,418.50
2022-11-07T19:29:29.871Z,464.20
2022-11-07T19:31:56.204Z,391.80
2022-11-07T19:34:22.627Z,381.65
2022-11-07T19:36:49.092Z,355.60
2022-11-07T19:39:15.402Z,343.38
2022-11-07T19:41:41.719Z,333.23
2022-11-07T19:44:08.172Z,314.65
2022-11-07T19:46:34.457Z,303.50
2022-11-07T19:49:00.786Z,291.45
2022-11-07T19:51:27.227Z,404.35
2022-11-07T19:53:53.484Z,448.38
2022-11-07T19:56:19.796Z,399.67
2022-11-07T19:58:46.045Z,379.45
2022-11-07T20:01:12.459Z,371.45
2022-11-07T20:03:39.025Z,353.35
2022-11-07T20:06:05.337Z,335.55
2022-11-07T20:08:31.578Z,328.77
2022-11-07T20:10:57.979Z,390.40
2022-11-07T20:13:24.288Z,488.27
2022-11-07T20:18:34.803Z,438.38
2022-11-07T20:21:01.116Z,408.45
2022-11-07T20:23:27.681Z,396.60
2022-11-07T20:25:54.199Z,379.98
2022-11-07T20:28:20.527Z,376.75
2022-11-07T20:33:21.948Z,444.70
2022-11-07T20:35:48.203Z,433.88
2022-11-07T20:38:14.920Z,417.92
2022-11-07T20:40:41.224Z,398.40
2022-11-07T20:43:07.835Z,385.92
2022-11-07T20:45:34.154Z,380.20
2022-11-07T20:48:00.534Z,363.73
2022-11-07T20:50:26.834Z,350.52
2022-11-07T20:52:57.637Z,336.52
2022-11-07T20:55:26.374Z,325.40
2022-11-07T20:57:52.711Z,313.27
2022-11-07T21:00:19.294Z,302.83
2022-11-07T21:02:45.538Z,296.58
2022-11-07T21:05:17.637Z,287.95
2022-11-07T21:07:44.448Z,278.05
2022-11-07T21:10:10.779Z,263.80
2022-11-07T21:12:37.037Z,257.20
2022-11-07T21:15:03.316Z,244.95
2022-11-07T21:17:29.793Z,237.00
2022-11-07T21:19:56.071Z,186.82
2022-11-07T21:22:26.630Z,168.13
2022-11-07T21:24:55.427Z,163.98
2022-11-07T21:27:21.745Z,157.85
2022-11-07T21:29:48.301Z,177.63
2022-11-07T21:32:14.626Z,231.70
2022-11-07T21:34:40.915Z,362.88
2022-11-07T21:37:07.207Z,329.45
2022-11-07T21:39:33.484Z,301.00
2022-11-07T21:41:59.817Z,287.60
2022-11-07T21:44:26.183Z,273.75
2022-11-07T21:46:52.447Z,261.33
2022-11-07T21:49:18.735Z,248.50
2022-11-07T21:51:44.975Z,237.95
2022-11-07T21:54:11.446Z,270.60
2022-11-07T21:56:37.904Z,391.05
2022-11-07T21:59:04.231Z,383.10
2022-11-07T22:01:30.755Z,358.33
2022-11-07T22:04:13.378Z,338.75
2022-11-07T22:06:40.185Z,316.80
2022-11-07T22:09:06.511Z,318.08
2022-11-07T22:11:32.832Z,295.83
2022-11-07T22:13:59.133Z,281.70
2022-11-07T22:16:25.862Z,282.70
2022-11-07T22:18:52.396Z,440.52
2022-11-07T22:21:18.653Z,434.17
2022-11-07T22:23:44.946Z,400.98
2022-11-07T22:26:11.305Z,381.33
2022-11-07T22:28:41.500Z,371.00
2022-11-07T22:31:10.698Z,353.00
2022-11-07T22:33:36.987Z,427.90
2022-11-07T22:36:03.435Z,522.80
2022-11-07T22:38:31.988Z,489.08
2022-11-07T22:40:58.305Z,465.38
2022-11-07T22:43:24.610Z,448.23
2022-11-07T22:45:51.002Z,431.25
2022-11-07T22:48:17.278Z,457.90
2022-11-07T22:50:43.588Z,534.92
2022-11-07T22:53:10.000Z,502.58
2022-11-07T22:55:36.316Z,485.02
2022-11-07T22:58:02.627Z,484.98
2022-11-07T23:00:28.933Z,471.15
2022-11-07T23:02:55.601Z,470.88
2022-11-07T23:05:21.954Z,474.10
2022-11-07T23:07:48.292Z,464.38
2022-11-07T23:10:15.646Z,453.67
2022-11-07T23:12:42.521Z,452.98
2022-11-07T23:15:08.851Z,454.88
2022-11-07T23:17:35.267Z,447.35
2022-11-07T23:20:01.563Z,443.27
2022-11-07T23:22:32.115Z,435.23
2022-11-07T23:24:58.822Z,432.90
2022-11-07T23:27:25.320Z,426.83
2022-11-07T23:29:51.650Z,419.85
2022-11-07T23:32:17.969Z,420.90
2022-11-07T23:34:44.244Z,408.58
2022-11-07T23:37:10.551Z,408.95
2022-11-07T23:39:36.853Z,406.38
2022-11-07T23:42:03.272Z,398.35
2022-11-07T23:44:29.697Z,403.52
2022-11-07T23:46:56.151Z,394.40
2022-11-07T23:49:22.700Z,386.15
2022-11-07T23:51:48.988Z,383.50
2022-11-07T23:54:15.283Z,372.83
2022-11-07T23:56:41.629Z,374.40
2022-11-07T23:59:07.873Z,373.95
